createdAt,value
2019-01-29T00:01:59.015Z,7.97
2019-01-29T00:04:29.463Z,8.27
2019-01-29T00:06:59.850Z,4.07
2019-01-29T00:09:30.289Z,9.00
2019-01-29T00:12:00.611Z,8.97
2019-01-29T00:14:34.725Z,11.00
2019-01-29T00:17:05.098Z,8.77
2019-01-29T00:19:35.375Z,11.40
2019-01-29T00:22:07.372Z,12.77
2019-01-29T00:24:37.750Z,10.77
2019-01-29T00:27:08.126Z,14.20
2019-01-29T00:29:38.324Z,8.23
2019-01-29T00:32:08.759Z,11.53
2019-01-29T00:34:39.116Z,10.50
2019-01-29T00:37:09.420Z,11.57
2019-01-29T00:39:39.641Z,11.80
2019-01-29T00:42:10.073Z,10.37
2019-01-29T00:44:40.608Z,11.33
2019-01-29T00:47:10.952Z,11.97
2019-01-29T00:49:41.329Z,14.13
2019-01-29T00:52:11.760Z,12.55
2019-01-29T00:54:42.054Z,13.72
2019-01-29T00:57:12.369Z,16.03
2019-01-29T00:59:42.698Z,14.30
2019-01-29T01:02:14.734Z,10.30
2019-01-29T01:04:45.131Z,14.63
2019-01-29T01:07:15.489Z,14.77
2019-01-29T01:09:45.990Z,17.73
2019-01-29T01:12:16.530Z,18.32
2019-01-29T01:14:46.926Z,12.90
2019-01-29T01:17:17.319Z,14.53
2019-01-29T01:19:47.860Z,13.43
2019-01-29T01:22:18.168Z,9.97
2019-01-29T01:24:48.581Z,10.33
2019-01-29T01:27:21.435Z,9.90
2019-01-29T01:29:51.877Z,13.93
2019-01-29T01:32:22.358Z,16.20
2019-01-29T01:34:52.626Z,13.17
2019-01-29T01:37:22.969Z,10.53
2019-01-29T01:39:53.304Z,10.13
2019-01-29T01:42:23.651Z,12.30
2019-01-29T01:44:54.001Z,13.40
2019-01-29T01:47:24.352Z,13.95
2019-01-29T01:49:54.715Z,15.03
2019-01-29T01:52:25.093Z,11.83
2019-01-29T01:54:55.474Z,13.63
2019-01-29T01:57:25.784Z,11.45
2019-01-29T01:59:56.091Z,12.83
2019-01-29T02:02:26.530Z,11.77
2019-01-29T02:04:56.832Z,11.67
2019-01-29T02:07:29.971Z,7.37
2019-01-29T02:10:00.396Z,14.27
2019-01-29T02:12:30.759Z,11.13
2019-01-29T02:15:01.131Z,15.85
2019-01-29T02:17:31.535Z,6.83
2019-01-29T02:20:02.019Z,11.33
2019-01-29T02:22:32.688Z,13.43
2019-01-29T02:25:07.478Z,11.37
2019-01-29T02:27:37.929Z,15.90
2019-01-29T02:30:15.946Z,14.90
2019-01-29T02:32:46.510Z,12.40
2019-01-29T02:35:16.984Z,10.07
2019-01-29T02:37:47.427Z,14.53
2019-01-29T02:40:21.365Z,13.03
2019-01-29T02:42:53.529Z,12.80
2019-01-29T02:45:24.935Z,16.20
2019-01-29T02:47:55.352Z,12.63
2019-01-29T02:50:25.762Z,19.07
2019-01-29T02:52:56.320Z,13.77
2019-01-29T02:55:26.728Z,9.83
2019-01-29T02:57:57.104Z,10.27
2019-01-29T03:00:28.639Z,6.73
2019-01-29T03:02:59.112Z,11.27
2019-01-29T03:05:29.486Z,12.33
2019-01-29T03:08:00.012Z,8.27
2019-01-29T03:10:30.482Z,11.63
2019-01-29T03:13:00.857Z,8.78
2019-01-29T03:15:33.362Z,12.23
2019-01-29T03:18:07.267Z,18.10
2019-01-29T03:20:37.820Z,13.43
2019-01-29T03:23:08.195Z,11.87
2019-01-29T03:25:38.681Z,8.93
2019-01-29T03:28:09.073Z,13.03
2019-01-29T03:30:39.388Z,11.73
2019-01-29T03:33:09.723Z,11.67
2019-01-29T03:35:40.034Z,13.88
2019-01-29T03:38:10.350Z,8.30
2019-01-29T03:40:40.785Z,12.27
2019-01-29T03:43:11.271Z,11.53
2019-01-29T03:45:41.781Z,10.40
2019-01-29T03:48:12.257Z,14.27
2019-01-29T03:50:42.671Z,11.57
2019-01-29T03:53:13.003Z,15.03
2019-01-29T03:55:43.434Z,14.27
2019-01-29T03:58:13.912Z,9.73
2019-01-29T04:00:44.411Z,10.07
2019-01-29T04:03:14.932Z,14.90
2019-01-29T04:05:45.368Z,8.47
2019-01-29T04:08:15.770Z,15.40
2019-01-29T04:10:46.232Z,15.60
2019-01-29T04:13:16.622Z,13.87
2019-01-29T04:15:47.107Z,14.87
2019-01-29T04:18:17.750Z,12.50
2019-01-29T04:20:48.089Z,12.73
2019-01-29T04:23:18.498Z,9.73
2019-01-29T04:25:50.355Z,16.77
2019-01-29T04:28:21.138Z,15.18
2019-01-29T04:30:54.649Z,17.20
2019-01-29T04:33:29.601Z,12.47
2019-01-29T04:35:59.987Z,14.73
2019-01-29T04:38:30.509Z,13.70
2019-01-29T04:41:01.144Z,12.03
2019-01-29T04:43:33.782Z,10.83
2019-01-29T04:46:04.346Z,13.13
2019-01-29T04:48:34.635Z,7.97
2019-01-29T04:51:04.989Z,10.50
2019-01-29T04:53:45.622Z,16.53
2019-01-29T04:56:16.385Z,14.63
2019-01-29T04:58:49.477Z,7.13
2019-01-29T05:01:19.976Z,13.97
2019-01-29T05:03:50.369Z,9.40
2019-01-29T05:06:23.793Z,9.70
2019-01-29T05:08:54.213Z,11.80
2019-01-29T05:11:24.681Z,9.60
2019-01-29T05:13:55.124Z,11.43
2019-01-29T05:16:25.488Z,10.43
2019-01-29T05:18:55.782Z,13.30
2019-01-29T05:21:26.120Z,7.13
2019-01-29T05:23:56.434Z,10.43
2019-01-29T05:26:26.774Z,10.30
2019-01-29T05:28:57.143Z,10.03
2019-01-29T05:31:27.557Z,11.10
2019-01-29T05:33:57.938Z,13.67
2019-01-29T05:36:28.314Z,14.63
2019-01-29T05:38:58.733Z,9.87
2019-01-29T05:41:29.098Z,9.17
2019-01-29T05:44:01.352Z,17.73
2019-01-29T05:46:34.222Z,11.80
2019-01-29T05:49:06.946Z,12.47
2019-01-29T05:51:40.669Z,11.40
2019-01-29T05:54:19.024Z,10.90
2019-01-29T05:56:54.804Z,7.60
2019-01-29T05:59:26.827Z,9.10
2019-01-29T06:01:57.296Z,12.03
2019-01-29T06:04:31.637Z,11.80
2019-01-29T06:07:05.477Z,12.03
2019-01-29T06:09:35.849Z,12.03
2019-01-29T06:12:08.616Z,11.80
2019-01-29T06:14:42.085Z,12.45
2019-01-29T06:17:14.249Z,7.67
2019-01-29T06:19:44.612Z,12.70
2019-01-29T06:22:15.003Z,7.93
2019-01-29T06:24:46.795Z,3.33
2019-01-29T06:27:17.932Z,11.47
2019-01-29T06:29:48.352Z,7.53
2019-01-29T06:32:18.763Z,10.43
2019-01-29T06:34:49.090Z,11.07
2019-01-29T06:37:19.615Z,7.03
2019-01-29T06:39:49.876Z,7.23
2019-01-29T06:42:20.265Z,20.20
2019-01-29T06:44:50.580Z,7.70
2019-01-29T06:47:20.931Z,7.15
2019-01-29T06:49:51.281Z,9.80
2019-01-29T06:52:21.611Z,10.00
2019-01-29T06:54:51.982Z,14.10
2019-01-29T06:57:22.398Z,13.67
2019-01-29T06:59:52.688Z,12.80
2019-01-29T07:02:23.036Z,12.90
2019-01-29T07:04:53.347Z,13.33
2019-01-29T07:07:23.633Z,8.70
2019-01-29T07:09:53.995Z,8.53
2019-01-29T07:12:24.354Z,14.57
2019-01-29T07:14:54.707Z,13.07
2019-01-29T07:17:31.591Z,12.90
2019-01-29T07:20:05.066Z,13.97
2019-01-29T07:22:35.445Z,12.60
2019-01-29T07:25:09.149Z,11.77
2019-01-29T07:27:39.528Z,12.40
2019-01-29T07:30:14.788Z,12.67
2019-01-29T07:32:45.154Z,9.47
2019-01-29T07:35:15.507Z,10.68
2019-01-29T07:37:45.782Z,10.83
2019-01-29T07:40:16.215Z,13.90
2019-01-29T07:42:48.674Z,13.47
2019-01-29T07:45:19.326Z,15.07
2019-01-29T07:47:49.679Z,12.73
2019-01-29T07:50:20.145Z,12.97
2019-01-29T07:52:50.545Z,13.60
2019-01-29T07:55:20.814Z,15.43
2019-01-29T07:57:51.218Z,9.28
2019-01-29T08:00:21.566Z,13.90
2019-01-29T08:02:51.823Z,14.03
2019-01-29T08:05:22.221Z,12.80
2019-01-29T08:07:52.822Z,14.83
2019-01-29T08:10:30.499Z,13.20
2019-01-29T08:13:00.937Z,11.53
2019-01-29T08:15:31.212Z,13.70
2019-01-29T08:18:01.668Z,12.33
2019-01-29T08:20:32.112Z,13.13
2019-01-29T08:23:02.471Z,17.67
2019-01-29T08:25:32.947Z,15.03
2019-01-29T08:28:03.459Z,20.13
2019-01-29T08:30:33.802Z,19.40
2019-01-29T08:33:05.781Z,21.47
2019-01-29T08:35:36.194Z,17.10
2019-01-29T08:38:07.034Z,19.90
2019-01-29T08:40:37.326Z,16.57
2019-01-29T08:43:07.592Z,23.23
2019-01-29T08:45:40.996Z,19.15
2019-01-29T08:48:11.364Z,24.12
2019-01-29T08:50:41.781Z,20.60
2019-01-29T08:53:12.091Z,17.78
2019-01-29T08:55:42.388Z,22.83
2019-01-29T08:58:12.643Z,19.17
2019-01-29T09:00:42.969Z,24.35
2019-01-29T09:03:13.335Z,26.47
2019-01-29T09:05:43.581Z,21.10
2019-01-29T09:08:15.860Z,24.45
2019-01-29T09:10:45.962Z,19.17
2019-01-29T09:13:16.602Z,17.33
2019-01-29T09:15:48.555Z,14.93
2019-01-29T09:18:21.848Z,17.25
2019-01-29T09:20:52.023Z,18.43
2019-01-29T09:23:22.343Z,21.93
2019-01-29T09:25:52.650Z,16.23
2019-01-29T09:28:25.052Z,13.80
2019-01-29T09:30:55.332Z,16.67
2019-01-29T09:33:25.781Z,12.60
2019-01-29T09:35:56.249Z,12.27
2019-01-29T09:38:26.445Z,17.20
2019-01-29T09:40:56.787Z,17.77
2019-01-29T09:43:27.235Z,16.37
2019-01-29T09:45:57.652Z,18.33
2019-01-29T09:48:27.851Z,18.63
2019-01-29T09:50:59.937Z,15.87
2019-01-29T09:53:30.206Z,17.70
2019-01-29T09:56:00.566Z,17.97
2019-01-29T09:58:30.766Z,21.10
2019-01-29T10:01:01.062Z,22.83
2019-01-29T10:03:31.391Z,20.50
2019-01-29T10:06:01.801Z,22.67
2019-01-29T10:08:32.120Z,19.67
2019-01-29T10:11:02.550Z,18.83
2019-01-29T10:13:33.178Z,19.60
2019-01-29T10:16:03.501Z,14.63
2019-01-29T10:18:33.793Z,24.18
2019-01-29T10:21:05.444Z,23.67
2019-01-29T10:23:35.834Z,23.83
2019-01-29T10:26:09.666Z,20.77
2019-01-29T10:28:40.100Z,23.45
2019-01-29T10:31:10.539Z,21.17
2019-01-29T10:33:43.750Z,26.50
2019-01-29T10:36:14.249Z,24.23
2019-01-29T10:38:44.673Z,24.37
2019-01-29T10:41:15.125Z,20.52
2019-01-29T10:43:45.703Z,22.43
2019-01-29T10:46:16.220Z,21.87
2019-01-29T10:48:46.588Z,27.03
2019-01-29T10:51:18.238Z,27.63
2019-01-29T10:53:50.758Z,18.73
2019-01-29T10:56:21.328Z,25.85
2019-01-29T10:58:51.770Z,21.30
2019-01-29T11:01:22.194Z,24.23
2019-01-29T11:03:52.560Z,23.27
2019-01-29T11:06:24.739Z,24.30
2019-01-29T11:08:55.149Z,22.73
2019-01-29T11:11:26.694Z,22.47
2019-01-29T11:13:57.080Z,21.43
2019-01-29T11:16:27.402Z,22.03
2019-01-29T11:19:03.135Z,31.63
2019-01-29T11:21:31.385Z,22.73
2019-01-29T11:24:01.902Z,23.60
2019-01-29T11:26:33.964Z,18.80
2019-01-29T11:29:04.724Z,23.73
2019-01-29T11:31:35.110Z,26.93
2019-01-29T11:34:06.970Z,22.77
2019-01-29T11:36:38.200Z,26.53
2019-01-29T11:39:11.436Z,24.33
2019-01-29T11:41:43.549Z,19.33
2019-01-29T11:44:13.891Z,26.50
2019-01-29T11:46:45.798Z,34.23
2019-01-29T11:49:19.060Z,25.62
2019-01-29T11:51:50.925Z,22.87
2019-01-29T11:54:21.585Z,26.07
2019-01-29T11:56:51.891Z,22.90
2019-01-29T11:59:22.286Z,24.12
2019-01-29T12:01:52.552Z,24.97
2019-01-29T12:04:24.336Z,24.57
2019-01-29T12:06:57.471Z,20.63
2019-01-29T12:09:27.825Z,26.83
2019-01-29T12:12:01.249Z,26.10
2019-01-29T12:14:34.658Z,22.40
2019-01-29T12:17:05.043Z,26.27
2019-01-29T12:19:35.553Z,20.70
2019-01-29T12:22:07.239Z,25.32
2019-01-29T12:24:38.910Z,25.57
2019-01-29T12:27:09.501Z,24.90
2019-01-29T12:29:39.881Z,27.90
2019-01-29T12:32:10.270Z,25.37
2019-01-29T12:34:42.376Z,25.00
2019-01-29T12:37:14.893Z,27.57
2019-01-29T12:39:45.352Z,21.93
2019-01-29T12:42:15.714Z,25.17
2019-01-29T12:47:08.946Z,21.27
2019-01-29T12:49:39.319Z,26.57
2019-01-29T12:52:30.464Z,25.53
2019-01-29T12:55:00.853Z,23.03
2019-01-29T12:57:31.243Z,23.47
2019-01-29T13:00:03.321Z,22.27
2019-01-29T13:02:33.944Z,22.10
2019-01-29T13:05:05.350Z,21.03
2019-01-29T13:07:35.808Z,21.87
2019-01-29T13:10:11.836Z,21.85
2019-01-29T13:12:42.420Z,23.00
2019-01-29T13:15:20.761Z,23.60
2019-01-29T13:17:51.646Z,19.40
2019-01-29T13:20:22.298Z,16.93
2019-01-29T13:22:54.975Z,21.93
2019-01-29T13:25:26.621Z,19.50
2019-01-29T13:28:00.140Z,17.53
2019-01-29T13:30:41.731Z,18.30
2019-01-29T13:33:16.955Z,19.87
2019-01-29T13:35:49.155Z,18.77
2019-01-29T13:38:19.767Z,21.40
2019-01-29T13:40:50.372Z,17.90
2019-01-29T13:43:23.890Z,17.17
2019-01-29T13:45:54.345Z,19.43
2019-01-29T13:48:24.684Z,17.27
2019-01-29T13:50:58.885Z,15.20
2019-01-29T13:53:29.299Z,15.50
2019-01-29T13:55:59.856Z,19.20
2019-01-29T13:58:30.435Z,15.10
2019-01-29T14:01:01.041Z,15.70
2019-01-29T14:03:31.718Z,16.17
2019-01-29T14:06:02.526Z,17.10
2019-01-29T14:08:32.985Z,16.80
2019-01-29T14:11:03.485Z,15.03
2019-01-29T14:13:33.850Z,14.97
2019-01-29T14:16:09.766Z,13.80
2019-01-29T14:18:40.172Z,11.77
2019-01-29T14:21:10.610Z,13.93
2019-01-29T14:23:42.699Z,11.50
2019-01-29T14:26:13.089Z,13.73
2019-01-29T14:28:43.468Z,11.90
2019-01-29T14:31:13.941Z,9.58
2019-01-29T14:33:44.447Z,11.77
2019-01-29T14:36:18.096Z,8.00
2019-01-29T14:39:16.712Z,11.93
2019-01-29T14:41:47.124Z,13.00
2019-01-29T14:44:25.126Z,11.63
2019-01-29T14:46:55.405Z,12.87
2019-01-29T14:49:25.842Z,11.97
2019-01-29T14:51:56.322Z,15.40
2019-01-29T14:54:29.915Z,11.27
2019-01-29T14:57:00.346Z,14.10
2019-01-29T14:59:30.773Z,14.10
2019-01-29T15:02:01.220Z,14.30
2019-01-29T15:04:31.672Z,13.67
2019-01-29T15:07:02.166Z,15.73
2019-01-29T15:09:32.563Z,13.30
2019-01-29T15:12:06.161Z,12.73
2019-01-29T15:14:36.529Z,14.47
2019-01-29T15:17:24.985Z,12.78
2019-01-29T15:19:55.364Z,11.60
2019-01-29T15:22:25.818Z,15.00
2019-01-29T15:24:56.255Z,14.77
2019-01-29T15:27:26.727Z,11.50
2019-01-29T15:29:59.317Z,15.10
2019-01-29T15:32:29.779Z,12.23
2019-01-29T15:35:00.200Z,14.53
2019-01-29T15:37:30.615Z,11.73
2019-01-29T15:40:03.990Z,13.30
2019-01-29T15:42:34.454Z,11.40
2019-01-29T15:45:06.391Z,15.63
2019-01-29T15:47:37.145Z,14.07
2019-01-29T15:50:10.091Z,14.93
2019-01-29T15:52:48.694Z,11.33
2019-01-29T15:55:26.105Z,11.43
2019-01-29T15:58:02.863Z,11.93
2019-01-29T16:00:35.848Z,11.60
2019-01-29T16:03:15.246Z,13.70
2019-01-29T16:05:46.841Z,15.73
2019-01-29T16:08:30.599Z,15.55
2019-01-29T16:11:09.958Z,14.87
2019-01-29T16:14:05.499Z,14.43
2019-01-29T16:16:35.684Z,15.10
2019-01-29T16:19:17.443Z,15.13
2019-01-29T16:22:04.886Z,11.57
2019-01-29T16:27:54.914Z,21.50
2019-01-29T16:30:35.511Z,20.05
2019-01-29T16:33:07.637Z,16.57
2019-01-29T16:35:44.460Z,17.20
2019-01-29T16:38:20.628Z,18.43
2019-01-29T16:40:51.209Z,21.87
2019-01-29T16:43:21.709Z,23.80
2019-01-29T16:45:52.139Z,25.30
2019-01-29T16:48:22.593Z,31.93
2019-01-29T16:50:53.117Z,25.07
2019-01-29T16:53:23.803Z,31.20
2019-01-29T16:55:54.250Z,27.70
2019-01-29T16:58:26.705Z,26.07
2019-01-29T17:00:57.170Z,34.43
2019-01-29T17:03:27.756Z,30.03
2019-01-29T17:05:58.258Z,28.17
2019-01-29T17:08:29.048Z,29.03
2019-01-29T17:11:00.216Z,24.77
2019-01-29T17:13:30.801Z,25.40
2019-01-29T17:16:01.256Z,28.50
2019-01-29T17:18:31.959Z,26.87
2019-01-29T17:21:02.550Z,33.20
2019-01-29T17:23:33.030Z,28.97
2019-01-29T17:26:03.720Z,26.93
2019-01-29T17:28:34.403Z,26.17
2019-01-29T17:31:04.970Z,27.35
2019-01-29T17:33:35.603Z,24.63
2019-01-29T17:36:06.289Z,20.93
2019-01-29T17:38:44.447Z,21.40
2019-01-29T17:41:09.943Z,26.87
2019-01-29T17:43:40.769Z,22.77
2019-01-29T17:46:11.073Z,25.88
2019-01-29T17:48:44.668Z,23.83
2019-01-29T17:51:15.116Z,21.50
2019-01-29T17:53:45.525Z,24.17
2019-01-29T17:56:15.977Z,26.13
2019-01-29T17:58:46.434Z,24.67
2019-01-29T18:01:16.995Z,24.12
2019-01-29T18:03:47.358Z,23.30
2019-01-29T18:06:17.786Z,28.47
2019-01-29T18:08:49.869Z,22.33
2019-01-29T18:11:20.526Z,23.73
2019-01-29T18:13:50.861Z,26.97
2019-01-29T18:16:21.297Z,28.90
2019-01-29T18:18:51.887Z,24.93
2019-01-29T18:21:22.547Z,25.20
2019-01-29T18:23:52.995Z,26.05
2019-01-29T18:26:23.386Z,24.90
2019-01-29T18:28:53.719Z,22.20
2019-01-29T18:31:24.364Z,26.53
2019-01-29T18:33:56.337Z,23.70
2019-01-29T18:36:26.999Z,28.50
2019-01-29T18:38:57.321Z,30.17
2019-01-29T18:41:28.420Z,25.25
2019-01-29T18:43:58.852Z,32.65
2019-01-29T18:46:29.260Z,27.23
2019-01-29T18:49:00.012Z,29.33
2019-01-29T18:51:30.865Z,23.40
2019-01-29T18:54:01.310Z,29.40
2019-01-29T18:56:32.928Z,31.67
2019-01-29T18:59:03.225Z,31.53
2019-01-29T19:01:33.603Z,29.20
2019-01-29T19:04:04.020Z,27.70
2019-01-29T19:06:34.428Z,29.83
2019-01-29T19:09:07.479Z,27.58
2019-01-29T19:11:38.111Z,28.70
2019-01-29T19:14:08.772Z,33.73
2019-01-29T19:16:39.327Z,31.47
2019-01-29T19:19:09.932Z,35.57
2019-01-29T19:21:40.465Z,30.07
2019-01-29T19:24:11.699Z,32.80
2019-01-29T19:26:42.427Z,34.63
2019-01-29T19:29:12.941Z,35.73
2019-01-29T19:31:43.713Z,29.67
2019-01-29T19:34:14.263Z,36.88
2019-01-29T19:36:44.863Z,30.53
2019-01-29T19:39:15.520Z,31.67
2019-01-29T19:41:46.445Z,32.57
2019-01-29T19:44:17.022Z,34.03
2019-01-29T19:46:47.802Z,32.50
2019-01-29T19:49:18.621Z,31.52
2019-01-29T19:51:49.216Z,36.67
2019-01-29T19:54:19.946Z,37.27
2019-01-29T19:56:50.698Z,31.57
2019-01-29T19:59:21.224Z,32.45
2019-01-29T20:01:54.895Z,34.17
2019-01-29T20:04:25.473Z,31.50
2019-01-29T20:06:56.141Z,32.50
2019-01-29T20:09:26.800Z,33.47
2019-01-29T20:11:57.353Z,32.57
2019-01-29T20:14:28.026Z,30.77
2019-01-29T20:16:58.557Z,34.57
2019-01-29T20:19:29.243Z,30.50
2019-01-29T20:21:59.930Z,35.23
2019-01-29T20:24:30.558Z,36.60
2019-01-29T20:27:01.088Z,32.67
2019-01-29T20:29:31.553Z,40.67
2019-01-29T20:32:04.708Z,31.67
2019-01-29T20:34:35.040Z,32.97
2019-01-29T20:37:05.443Z,32.27
2019-01-29T20:39:35.746Z,32.07
2019-01-29T20:42:07.048Z,30.52
2019-01-29T20:44:37.249Z,29.30
2019-01-29T20:47:07.866Z,30.40
2019-01-29T20:49:38.277Z,31.50
2019-01-29T20:52:08.704Z,31.57
2019-01-29T20:54:39.225Z,34.23
2019-01-29T20:57:09.623Z,32.50
2019-01-29T20:59:40.015Z,28.93
2019-01-29T21:02:11.654Z,32.70
2019-01-29T21:04:41.896Z,30.93
2019-01-29T21:07:12.241Z,33.07
2019-01-29T21:09:42.580Z,31.63
2019-01-29T21:12:13.101Z,31.80
2019-01-29T21:14:43.905Z,32.10
2019-01-29T21:17:14.412Z,28.53
2019-01-29T21:19:44.792Z,31.30
2019-01-29T21:22:15.739Z,35.30
2019-01-29T21:24:46.306Z,31.13
2019-01-29T21:27:16.809Z,35.33
2019-01-29T21:29:47.276Z,35.90
2019-01-29T21:32:17.919Z,34.45
2019-01-29T21:34:48.193Z,33.50
2019-01-29T21:37:18.612Z,31.42
2019-01-29T21:39:49.012Z,33.40
2019-01-29T21:42:19.262Z,27.42
2019-01-29T21:44:49.652Z,30.17
2019-01-29T21:47:19.961Z,34.60
2019-01-29T21:49:51.015Z,32.73
2019-01-29T21:52:21.448Z,35.63
2019-01-29T21:54:51.772Z,37.93
2019-01-29T21:57:22.065Z,36.87
2019-01-29T21:59:54.197Z,32.30
2019-01-29T22:02:25.203Z,31.70
2019-01-29T22:04:55.475Z,38.70
2019-01-29T22:07:25.771Z,29.53
2019-01-29T22:09:59.294Z,37.13
2019-01-29T22:12:29.776Z,32.97
2019-01-29T22:15:00.318Z,37.33
2019-01-29T22:17:30.678Z,36.83
2019-01-29T22:20:01.037Z,34.40
2019-01-29T22:22:31.300Z,38.00
2019-01-29T22:25:01.882Z,34.13
2019-01-29T22:27:32.197Z,35.60
2019-01-29T22:30:02.523Z,31.57
2019-01-29T22:32:32.817Z,33.33
2019-01-29T22:35:03.068Z,37.23
2019-01-29T22:37:33.437Z,34.90
2019-01-29T22:40:03.743Z,34.00
2019-01-29T22:42:34.045Z,33.53
2019-01-29T22:45:05.350Z,35.60
2019-01-29T22:47:35.615Z,31.80
2019-01-29T22:50:09.763Z,33.45
2019-01-29T22:52:39.956Z,34.60
2019-01-29T22:55:13.938Z,35.37
2019-01-29T22:57:44.351Z,34.80
2019-01-29T23:01:03.135Z,31.25
2019-01-29T23:03:49.745Z,34.60
2019-01-29T23:06:58.113Z,31.87
2019-01-29T23:09:28.390Z,32.17
2019-01-29T23:11:58.740Z,33.57
2019-01-29T23:14:28.995Z,28.40
2019-01-29T23:16:59.389Z,27.93
2019-01-29T23:19:29.680Z,28.20
2019-01-29T23:22:00.009Z,29.23
2019-01-29T23:24:30.364Z,30.57
2019-01-29T23:27:00.699Z,32.77
2019-01-29T23:29:31.071Z,30.40
2019-01-29T23:32:01.348Z,29.37
2019-01-29T23:34:32.260Z,29.47
2019-01-29T23:37:02.555Z,35.03
2019-01-29T23:39:32.843Z,28.38
2019-01-29T23:42:03.090Z,28.30
2019-01-29T23:44:33.378Z,30.03
2019-01-29T23:47:03.739Z,25.83
2019-01-29T23:49:34.052Z,30.25
2019-01-29T23:52:04.719Z,27.47
2019-01-29T23:54:35.011Z,26.30
2019-01-29T23:57:05.411Z,30.73
2019-01-29T23:59:35.827Z,27.82
